createdAt,value
2023-03-14T00:19:07.595Z,93696.00
2023-03-14T00:20:23.550Z,93668.00
2023-03-14T00:21:07.376Z,93667.00
2023-03-14T00:22:07.518Z,93674.00
2023-03-14T00:25:47.337Z,93668.00
2023-03-14T00:28:07.480Z,93684.00
2023-03-14T00:29:07.460Z,93674.00
2023-03-14T00:30:23.771Z,93684.00
2023-03-14T00:31:28.068Z,93680.00
2023-03-14T00:32:27.597Z,93680.00
2023-03-14T00:33:28.153Z,93667.00
2023-03-14T00:34:43.769Z,93659.00
2023-03-14T00:35:47.510Z,93643.00
2023-03-14T00:38:07.164Z,93655.00
2023-03-14T00:39:07.018Z,93641.00
2023-03-14T00:40:06.982Z,93649.00
2023-03-14T00:41:09.748Z,93637.00
2023-03-14T00:42:06.891Z,93659.00
2023-03-14T00:43:23.095Z,93649.00
2023-03-14T00:44:26.481Z,93647.00
2023-03-14T00:45:26.675Z,93651.00
2023-03-14T00:46:26.403Z,93667.00
2023-03-14T00:47:26.369Z,93643.00
2023-03-14T00:48:26.335Z,93643.00
2023-03-14T00:49:26.352Z,93657.00
2023-03-14T00:50:26.370Z,93631.00
2023-03-14T00:51:26.346Z,93639.00
2023-03-14T01:01:25.364Z,93610.00
2023-03-14T01:02:25.157Z,93631.00
2023-03-14T01:03:26.119Z,93616.00
2023-03-14T01:04:25.032Z,93618.00
2023-03-14T01:05:25.046Z,93616.00
2023-03-14T01:06:25.026Z,93631.00
2023-03-14T01:07:25.111Z,93620.00
2023-03-14T01:08:25.006Z,93614.00
2023-03-14T01:09:25.015Z,93616.00
2023-03-14T01:10:25.040Z,93633.00
2023-03-14T01:11:25.025Z,93631.00
2023-03-14T01:12:25.018Z,93635.00
2023-03-14T01:13:24.986Z,93610.00
2023-03-14T01:14:24.986Z,93614.00
2023-03-14T01:15:25.002Z,93631.00
2023-03-14T01:16:25.115Z,93618.00
2023-03-14T01:17:24.953Z,93614.00
2023-03-14T01:18:24.979Z,93598.00
2023-03-14T01:19:25.020Z,93600.00
2023-03-14T01:20:24.930Z,93598.00
2023-03-14T01:21:24.991Z,93594.00
2023-03-14T01:25:02.261Z,93563.00
2023-03-14T01:26:02.084Z,93553.00
2023-03-14T01:27:02.294Z,93573.00
2023-03-14T01:28:02.034Z,93578.00
2023-03-14T01:30:22.129Z,93573.00
2023-03-14T01:31:21.987Z,93573.00
2023-03-14T01:32:22.177Z,93565.00
2023-03-14T01:33:21.801Z,93563.00
2023-03-14T01:34:21.799Z,93567.00
2023-03-14T01:35:21.825Z,93569.00
2023-03-14T01:36:21.829Z,93569.00
2023-03-14T01:37:21.830Z,93561.00
2023-03-14T01:38:21.802Z,93559.00
2023-03-14T01:39:21.751Z,93578.00
2023-03-14T01:40:21.955Z,93576.00
2023-03-14T01:41:21.756Z,93567.00
2023-03-14T01:42:21.764Z,93567.00
2023-03-14T01:43:21.761Z,93580.00
2023-03-14T01:44:21.700Z,93580.00
2023-03-14T01:45:21.778Z,93578.00
2023-03-14T01:46:21.736Z,93547.00
2023-03-14T01:47:21.711Z,93535.00
2023-03-14T01:48:21.692Z,93526.00
2023-03-14T01:49:21.717Z,93529.00
2023-03-14T01:50:21.704Z,93535.00
2023-03-14T01:51:21.684Z,93555.00
2023-03-14T01:52:21.666Z,93551.00
2023-03-14T01:53:21.683Z,93553.00
2023-03-14T02:21:00.848Z,93545.00
2023-03-14T02:22:01.037Z,93549.00
2023-03-14T02:23:00.875Z,93547.00
2023-03-14T02:24:00.761Z,93547.00
2023-03-14T02:25:00.783Z,93547.00
2023-03-14T02:26:00.758Z,93549.00
2023-03-14T02:27:01.072Z,93545.00
2023-03-14T02:28:00.754Z,93545.00
2023-03-14T02:29:00.720Z,93539.00
2023-03-14T02:30:00.803Z,93543.00
2023-03-14T03:27:40.307Z,93614.00
2023-03-14T03:28:40.110Z,93614.00
2023-03-14T03:29:40.051Z,93616.00
2023-03-14T03:30:40.191Z,93618.00
2023-03-14T03:31:43.459Z,93618.00
2023-03-14T03:36:35.656Z,93616.00
2023-03-14T03:38:39.494Z,93633.00
2023-03-14T03:39:39.201Z,93633.00
2023-03-14T03:40:39.489Z,93637.00
2023-03-14T03:41:39.146Z,93639.00
2023-03-14T03:42:39.191Z,93639.00
2023-03-14T03:43:39.162Z,93641.00
2023-03-14T03:44:39.133Z,93643.00
2023-03-14T03:45:53.964Z,93647.00
2023-03-14T03:46:40.132Z,93647.00
2023-03-14T03:49:58.837Z,93655.00
2023-03-14T03:50:58.622Z,93657.00
2023-03-14T03:51:58.649Z,93657.00
2023-03-14T03:52:58.607Z,93661.00
2023-03-14T03:57:27.389Z,93655.00
2023-03-14T04:01:03.896Z,93641.00
2023-03-14T04:02:03.545Z,93649.00
2023-03-14T04:03:03.325Z,93653.00
2023-03-14T04:04:03.319Z,93655.00
2023-03-14T04:05:03.265Z,93657.00
2023-03-14T04:06:03.346Z,93657.00
2023-03-14T04:07:03.243Z,93653.00
2023-03-14T04:08:03.320Z,93653.00
2023-03-14T04:09:03.260Z,93649.00
2023-03-14T04:10:03.264Z,93649.00
2023-03-14T04:11:03.234Z,93645.00
2023-03-14T04:12:03.244Z,93643.00
2023-03-14T04:13:03.253Z,93643.00
2023-03-14T04:14:03.267Z,93647.00
2023-03-14T04:15:03.212Z,93649.00
2023-03-14T04:16:03.311Z,93657.00
2023-03-14T04:17:03.191Z,93655.00
2023-03-14T04:18:03.181Z,93665.00
2023-03-14T04:19:03.197Z,93668.00
2023-03-14T04:20:03.208Z,93665.00
2023-03-14T04:21:03.211Z,93667.00
2023-03-14T04:23:22.753Z,93670.00
2023-03-14T04:24:22.899Z,93670.00
2023-03-14T04:25:22.721Z,93670.00
2023-03-14T04:26:22.686Z,93670.00
2023-03-14T04:27:22.640Z,93672.00
2023-03-14T04:28:22.655Z,93674.00
2023-03-14T04:29:22.657Z,93678.00
2023-03-14T04:30:22.623Z,93678.00
2023-03-14T04:31:22.707Z,93680.00
2023-03-14T04:33:44.859Z,93688.00
2023-03-14T04:43:45.184Z,93665.00
2023-03-14T05:04:45.257Z,93649.00
2023-03-14T05:06:32.401Z,93639.00
2023-03-14T05:07:32.108Z,93639.00
2023-03-14T05:08:32.043Z,93641.00
2023-03-14T05:09:32.062Z,93639.00
2023-03-14T05:10:32.049Z,93639.00
2023-03-14T05:11:32.059Z,93641.00
2023-03-14T05:12:32.036Z,93639.00
2023-03-14T05:13:31.988Z,93635.00
2023-03-14T05:19:36.683Z,93602.00
2023-03-14T05:20:36.916Z,93604.00
2023-03-14T05:21:36.585Z,93606.00
2023-03-14T05:27:32.795Z,93594.00
2023-03-14T05:29:32.458Z,93596.00
2023-03-14T05:49:56.463Z,93590.00
2023-03-14T05:50:56.498Z,93586.00
2023-03-14T05:51:56.456Z,93590.00
2023-03-14T05:52:56.434Z,93586.00
2023-03-14T05:53:56.493Z,93584.00
2023-03-14T05:54:56.415Z,93578.00
2023-03-14T05:55:58.029Z,93569.00
2023-03-14T05:56:56.412Z,93567.00
2023-03-14T06:01:36.018Z,93551.00
2023-03-14T06:10:42.243Z,93543.00
2023-03-14T06:11:42.080Z,93545.00
2023-03-14T06:12:42.246Z,93545.00
2023-03-14T06:41:57.282Z,93543.00
2023-03-14T06:42:57.478Z,93547.00
2023-03-14T06:43:56.972Z,93549.00
2023-03-14T06:44:56.892Z,93551.00
2023-03-14T06:57:52.287Z,93584.00
2023-03-14T06:58:55.418Z,93584.00
2023-03-14T07:37:35.187Z,93586.00
2023-03-14T07:49:33.540Z,93586.00
2023-03-14T08:05:13.748Z,93582.00
2023-03-14T08:06:13.690Z,93586.00
2023-03-14T08:08:33.924Z,93584.00
2023-03-14T08:14:14.743Z,93578.00
2023-03-14T08:15:14.361Z,93580.00
2023-03-14T08:16:14.415Z,93580.00
2023-03-14T08:17:14.340Z,93582.00
2023-03-14T08:18:14.353Z,93586.00
2023-03-14T08:19:14.492Z,93586.00
2023-03-14T08:21:14.371Z,93588.00
2023-03-14T08:22:14.320Z,93586.00
2023-03-14T08:23:14.317Z,93584.00
2023-03-14T08:24:14.736Z,93586.00
2023-03-14T08:25:14.314Z,93582.00
2023-03-14T08:26:14.308Z,93586.00
2023-03-14T08:27:14.337Z,93584.00
2023-03-14T08:28:14.323Z,93582.00
2023-03-14T08:29:14.717Z,93584.00
2023-03-14T08:30:14.267Z,93584.00
2023-03-14T08:31:14.500Z,93584.00
2023-03-14T08:36:13.308Z,93588.00
2023-03-14T08:37:25.375Z,93586.00
2023-03-14T08:38:13.928Z,93586.00
2023-03-14T08:39:12.913Z,93586.00
2023-03-14T08:41:35.730Z,93584.00
2023-03-14T08:42:35.349Z,93586.00
2023-03-14T08:44:56.554Z,93588.00
2023-03-14T08:47:12.772Z,93584.00
2023-03-14T08:49:33.826Z,93590.00
2023-03-14T08:50:32.792Z,93590.00
2023-03-14T08:51:33.830Z,93588.00
2023-03-14T08:52:34.476Z,93590.00
2023-03-14T08:54:51.589Z,93590.00
2023-03-14T09:44:26.326Z,93643.00
2023-03-14T09:47:59.075Z,93649.00
2023-03-14T09:48:50.912Z,93647.00
2023-03-14T09:49:49.626Z,93649.00
2023-03-14T09:50:49.616Z,93645.00
2023-03-14T09:53:12.560Z,93641.00
2023-03-14T09:55:14.183Z,93651.00
2023-03-14T09:57:31.300Z,93653.00
2023-03-14T09:58:31.206Z,93655.00
2023-03-14T09:59:31.281Z,93657.00
2023-03-14T10:01:51.916Z,93655.00
2023-03-14T10:31:12.021Z,93649.00
2023-03-14T10:41:11.970Z,93655.00
2023-03-14T10:46:11.964Z,93647.00
2023-03-14T10:47:11.741Z,93651.00
2023-03-14T10:48:11.787Z,93651.00
2023-03-14T10:49:11.910Z,93647.00
2023-03-14T10:50:12.127Z,93651.00
2023-03-14T10:51:11.860Z,93651.00
2023-03-14T10:52:11.866Z,93649.00
2023-03-14T10:53:11.966Z,93647.00
2023-03-14T10:54:11.980Z,93645.00
2023-03-14T10:55:12.147Z,93643.00
2023-03-14T10:56:12.060Z,93645.00
2023-03-14T10:57:12.096Z,93639.00
2023-03-14T10:58:12.112Z,93639.00
2023-03-14T10:59:12.123Z,93641.00
2023-03-14T11:00:12.114Z,93641.00
2023-03-14T11:02:13.874Z,93643.00
2023-03-14T11:03:12.145Z,93639.00
2023-03-14T11:04:12.171Z,93639.00
2023-03-14T11:05:12.160Z,93643.00
2023-03-14T11:06:12.281Z,93639.00
2023-03-14T11:07:12.223Z,93637.00
2023-03-14T11:08:12.229Z,93639.00
2023-03-14T11:09:12.250Z,93639.00
2023-03-14T11:10:12.312Z,93635.00
2023-03-14T11:11:12.413Z,93631.00
2023-03-14T11:12:12.393Z,93631.00
2023-03-14T11:13:12.381Z,93629.00
2023-03-14T11:14:12.418Z,93622.00
2023-03-14T11:15:12.430Z,93622.00
2023-03-14T11:16:13.151Z,93618.00
2023-03-14T11:17:12.518Z,93622.00
2023-03-14T11:18:12.497Z,93622.00
2023-03-14T11:19:12.577Z,93618.00
2023-03-14T11:20:12.579Z,93616.00
2023-03-14T11:22:12.699Z,93612.00
2023-03-14T11:23:12.751Z,93612.00
2023-03-14T11:24:12.813Z,93610.00
2023-03-14T11:25:12.867Z,93610.00
2023-03-14T11:26:28.887Z,93608.00
2023-03-14T11:29:32.717Z,93594.00
2023-03-14T11:30:32.628Z,93594.00
2023-03-14T11:31:33.596Z,93588.00
2023-03-14T11:33:52.888Z,93586.00
2023-03-14T11:34:52.348Z,93584.00
2023-03-14T11:35:52.234Z,93584.00
2023-03-14T11:37:05.270Z,93584.00
2023-03-14T11:42:51.815Z,93576.00
2023-03-14T11:44:04.523Z,93576.00
2023-03-14T11:44:52.882Z,93569.00
2023-03-14T11:50:40.791Z,93563.00
2023-03-14T12:02:48.698Z,93543.00
2023-03-14T12:15:53.307Z,93539.00
2023-03-14T12:16:54.984Z,93541.00
2023-03-14T12:17:53.213Z,93539.00
2023-03-14T12:18:53.221Z,93541.00
2023-03-14T12:19:53.303Z,93545.00
2023-03-14T12:20:53.196Z,93545.00
2023-03-14T12:21:53.518Z,93545.00
2023-03-14T12:22:53.224Z,93545.00
2023-03-14T12:23:53.239Z,93545.00
2023-03-14T12:24:53.165Z,93539.00
2023-03-14T12:25:53.166Z,93539.00
2023-03-14T12:26:53.526Z,93541.00
2023-03-14T12:27:53.225Z,93539.00
2023-03-14T12:28:53.140Z,93545.00
2023-03-14T12:29:54.015Z,93539.00
2023-03-14T12:30:54.066Z,93543.00
2023-03-14T12:31:53.585Z,93543.00
2023-03-14T12:32:54.011Z,93543.00
2023-03-14T12:33:53.120Z,93545.00
2023-03-14T12:34:54.034Z,93547.00
2023-03-14T12:35:53.252Z,93547.00
2023-03-14T12:36:54.004Z,93545.00
2023-03-14T12:37:54.447Z,93545.00
2023-03-14T12:38:53.096Z,93547.00
2023-03-14T12:39:53.139Z,93551.00
2023-03-14T12:40:53.136Z,93547.00
2023-03-14T12:41:53.177Z,93549.00
2023-03-14T12:42:53.172Z,93547.00
2023-03-14T12:43:53.164Z,93545.00
2023-03-14T12:44:53.199Z,93547.00
2023-03-14T12:45:53.305Z,93547.00
2023-03-14T12:46:53.279Z,93545.00
2023-03-14T12:47:53.372Z,93547.00
2023-03-14T12:48:53.384Z,93547.00
2023-03-14T12:49:53.421Z,93545.00
2023-03-14T12:50:53.410Z,93545.00
2023-03-14T12:51:53.506Z,93545.00
2023-03-14T12:52:53.433Z,93539.00
2023-03-14T12:53:53.478Z,93539.00
2023-03-14T12:54:53.530Z,93537.00
2023-03-14T12:55:53.531Z,93531.00
2023-03-14T12:56:53.473Z,93528.00
2023-03-14T12:57:53.469Z,93529.00
2023-03-14T12:58:53.500Z,93526.00
2023-03-14T12:59:53.509Z,93529.00
2023-03-14T13:00:53.609Z,93526.00
2023-03-14T13:01:53.554Z,93529.00
2023-03-14T13:02:53.600Z,93529.00
2023-03-14T13:03:53.651Z,93528.00
2023-03-14T13:04:53.658Z,93529.00
2023-03-14T13:05:53.719Z,93529.00
2023-03-14T13:06:53.776Z,93529.00
2023-03-14T13:08:53.835Z,93531.00
2023-03-14T13:09:53.817Z,93533.00
2023-03-14T13:10:53.756Z,93531.00
2023-03-14T13:11:53.767Z,93533.00
2023-03-14T13:12:53.754Z,93531.00
2023-03-14T13:13:53.872Z,93533.00
2023-03-14T13:14:54.245Z,93535.00
2023-03-14T13:18:14.047Z,93539.00
2023-03-14T13:19:13.445Z,93535.00
2023-03-14T13:20:13.526Z,93535.00
2023-03-14T13:25:12.426Z,93539.00
2023-03-14T13:26:12.267Z,93541.00
2023-03-14T13:27:12.939Z,93543.00
2023-03-14T13:28:12.126Z,93543.00
2023-03-14T13:29:12.135Z,93545.00
2023-03-14T13:30:12.110Z,93541.00
2023-03-14T13:31:12.172Z,93545.00
2023-03-14T13:32:13.015Z,93547.00
2023-03-14T13:33:12.225Z,93547.00
2023-03-14T13:34:12.166Z,93547.00
2023-03-14T13:35:12.079Z,93549.00
2023-03-14T13:36:12.219Z,93547.00
2023-03-14T13:37:12.133Z,93549.00
2023-03-14T13:38:12.603Z,93551.00
2023-03-14T13:39:12.064Z,93549.00
2023-03-14T13:40:12.099Z,93551.00
2023-03-14T13:41:12.139Z,93549.00
2023-03-14T13:42:12.178Z,93553.00
2023-03-14T13:43:12.312Z,93559.00
2023-03-14T13:44:12.039Z,93557.00
2023-03-14T13:45:12.002Z,93559.00
2023-03-14T13:46:12.086Z,93559.00
2023-03-14T13:47:12.030Z,93555.00
2023-03-14T13:48:12.027Z,93563.00
2023-03-14T13:49:12.031Z,93565.00
2023-03-14T13:50:11.994Z,93567.00
2023-03-14T13:51:11.972Z,93573.00
2023-03-14T13:52:11.955Z,93575.00
2023-03-14T13:53:11.950Z,93580.00
2023-03-14T13:54:11.965Z,93582.00
2023-03-14T13:55:11.979Z,93586.00
2023-03-14T13:56:11.984Z,93592.00
2023-03-14T13:57:11.917Z,93594.00
2023-03-14T13:58:12.004Z,93600.00
2023-03-14T13:59:12.005Z,93602.00
2023-03-14T14:00:11.926Z,93600.00
2023-03-14T14:01:12.060Z,93600.00
2023-03-14T14:02:11.950Z,93600.00
2023-03-14T14:03:12.000Z,93602.00
2023-03-14T14:04:12.037Z,93604.00
2023-03-14T14:05:11.861Z,93610.00
2023-03-14T14:06:12.032Z,93612.00
2023-03-14T14:07:11.852Z,93610.00
2023-03-14T14:08:11.886Z,93610.00
2023-03-14T14:09:11.961Z,93606.00
2023-03-14T14:10:11.986Z,93602.00
2023-03-14T14:11:11.997Z,93602.00
2023-03-14T14:12:16.330Z,93604.00
2023-03-14T14:13:12.018Z,93604.00
2023-03-14T14:14:12.059Z,93604.00
2023-03-14T14:15:12.009Z,93606.00
2023-03-14T14:20:12.624Z,93604.00
2023-03-14T14:31:36.986Z,93633.00
2023-03-14T14:32:36.964Z,93637.00
2023-03-14T14:33:36.476Z,93637.00
2023-03-14T14:34:36.519Z,93639.00
2023-03-14T14:35:36.476Z,93637.00
2023-03-14T14:36:36.419Z,93643.00
2023-03-14T14:37:36.450Z,93643.00
2023-03-14T14:38:36.441Z,93647.00
2023-03-14T14:39:36.386Z,93651.00
2023-03-14T14:40:36.443Z,93649.00
2023-03-14T14:41:36.461Z,93655.00
2023-03-14T14:42:36.366Z,93655.00
2023-03-14T14:43:36.364Z,93661.00
2023-03-14T14:44:36.384Z,93659.00
2023-03-14T14:45:36.938Z,93661.00
2023-03-14T14:46:36.594Z,93661.00
2023-03-14T14:47:36.400Z,93661.00
2023-03-14T14:48:36.400Z,93663.00
2023-03-14T14:49:36.506Z,93665.00
2023-03-14T14:50:36.314Z,93667.00
2023-03-14T14:51:36.416Z,93672.00
2023-03-14T14:52:36.346Z,93676.00
2023-03-14T14:53:36.443Z,93678.00
2023-03-14T14:54:36.433Z,93686.00
2023-03-14T14:55:36.471Z,93692.00
2023-03-14T14:56:36.657Z,93698.00
2023-03-14T14:57:36.566Z,93696.00
2023-03-14T14:58:36.625Z,93700.00
2023-03-14T14:59:36.673Z,93692.00
2023-03-14T15:00:36.922Z,93690.00
2023-03-14T15:01:36.842Z,93688.00
2023-03-14T15:02:36.855Z,93700.00
2023-03-14T15:03:36.816Z,93704.00
2023-03-14T15:23:55.170Z,93715.00
2023-03-14T15:24:54.818Z,93709.00
2023-03-14T15:25:56.361Z,93707.00
2023-03-14T15:26:54.831Z,93709.00
2023-03-14T15:27:54.892Z,93704.00
2023-03-14T15:28:54.947Z,93702.00
2023-03-14T15:33:34.474Z,93723.00
2023-03-14T15:34:35.229Z,93725.00
2023-03-14T15:36:54.177Z,93715.00
2023-03-14T15:37:54.398Z,93717.00
2023-03-14T15:38:54.197Z,93714.00
2023-03-14T15:39:54.095Z,93715.00
2023-03-14T15:40:54.437Z,93717.00
2023-03-14T15:41:54.099Z,93721.00
2023-03-14T15:42:53.863Z,93721.00
2023-03-14T15:43:53.871Z,93723.00
2023-03-14T15:44:54.141Z,93721.00
2023-03-14T15:45:53.882Z,93723.00
2023-03-14T15:46:53.982Z,93725.00
2023-03-14T15:47:54.205Z,93727.00
2023-03-14T15:52:32.889Z,93745.00
2023-03-14T15:53:32.859Z,93749.00
2023-03-14T15:54:32.877Z,93749.00
2023-03-14T15:56:32.968Z,93743.00
2023-03-14T15:58:52.834Z,93743.00
2023-03-14T15:59:52.579Z,93747.00
2023-03-14T16:00:52.664Z,93749.00
2023-03-14T16:01:52.364Z,93755.00
2023-03-14T16:02:52.386Z,93759.00
2023-03-14T16:03:52.328Z,93759.00
2023-03-14T16:04:52.422Z,93757.00
2023-03-14T16:05:52.360Z,93755.00
2023-03-14T16:06:53.149Z,93759.00
2023-03-14T16:07:53.662Z,93761.00
2023-03-14T16:08:52.318Z,93761.00
2023-03-14T16:09:52.309Z,93762.00
2023-03-14T16:10:52.685Z,93766.00
2023-03-14T16:11:52.824Z,93766.00
2023-03-14T16:12:52.447Z,93768.00
2023-03-14T16:13:52.974Z,93770.00
2023-03-14T16:14:52.697Z,93776.00
2023-03-14T16:15:52.699Z,93776.00
2023-03-14T16:16:52.717Z,93780.00
2023-03-14T16:17:52.815Z,93782.00
2023-03-14T16:19:52.738Z,93776.00
2023-03-14T16:20:53.005Z,93776.00
2023-03-14T16:21:53.328Z,93780.00
2023-03-14T16:22:53.330Z,93772.00
2023-03-14T16:23:53.255Z,93774.00
2023-03-14T16:24:52.638Z,93776.00
2023-03-14T16:25:52.692Z,93788.00
2023-03-14T16:26:52.668Z,93788.00
2023-03-14T16:28:08.441Z,93794.00
2023-03-14T16:28:53.600Z,93794.00
2023-03-14T16:29:53.024Z,93796.00
2023-03-14T16:30:52.840Z,93790.00
2023-03-14T16:31:52.946Z,93794.00
2023-03-14T16:32:52.892Z,93794.00
2023-03-14T16:33:52.819Z,93796.00
2023-03-14T16:34:52.827Z,93802.00
2023-03-14T16:35:52.676Z,93804.00
2023-03-14T16:36:52.572Z,93804.00
2023-03-14T16:37:52.573Z,93804.00
2023-03-14T16:40:13.674Z,93809.00
2023-03-14T16:43:51.808Z,93819.00
2023-03-14T18:16:50.925Z,94091.00
2023-03-14T18:17:50.888Z,94091.00
2023-03-14T18:18:50.922Z,94089.00
2023-03-14T18:34:49.689Z,94119.00
2023-03-14T18:35:49.447Z,94123.00
2023-03-14T18:36:49.552Z,94129.00
2023-03-14T18:37:49.382Z,94142.00
2023-03-14T18:38:49.337Z,94135.00
2023-03-14T18:39:49.395Z,94127.00
2023-03-14T18:40:49.365Z,94125.00
2023-03-14T18:41:49.280Z,94121.00
2023-03-14T18:42:49.287Z,94123.00
2023-03-14T18:43:49.312Z,94129.00
2023-03-14T18:45:05.606Z,94135.00
2023-03-14T18:54:14.508Z,94154.00
2023-03-14T18:56:14.505Z,94154.00
2023-03-14T18:57:14.617Z,94156.00
2023-03-14T18:58:14.210Z,94154.00
2023-03-14T18:59:14.184Z,94148.00
2023-03-14T19:00:14.184Z,94152.00
2023-03-14T19:01:14.511Z,94160.00
2023-03-14T19:02:14.618Z,94162.00
2023-03-14T19:03:14.164Z,94164.00
2023-03-14T19:04:14.176Z,94166.00
2023-03-14T19:05:14.149Z,94164.00
2023-03-14T19:06:14.139Z,94166.00
2023-03-14T19:07:14.125Z,94168.00
2023-03-14T19:08:14.160Z,94168.00
2023-03-14T19:09:14.117Z,94172.00
2023-03-14T19:10:14.099Z,94172.00
2023-03-14T19:11:14.119Z,94168.00
2023-03-14T19:12:14.080Z,94168.00
2023-03-14T19:13:14.088Z,94174.00
2023-03-14T19:14:14.089Z,94176.00
2023-03-14T19:15:14.071Z,94176.00
2023-03-14T19:16:14.148Z,94176.00
2023-03-14T19:17:14.075Z,94178.00
2023-03-14T19:18:14.055Z,94178.00
2023-03-14T19:19:14.015Z,94176.00
2023-03-14T19:20:14.033Z,94183.00
2023-03-14T19:21:14.026Z,94181.00
2023-03-14T19:22:14.504Z,94183.00
2023-03-14T19:23:14.037Z,94181.00
2023-03-14T19:24:14.002Z,94181.00
2023-03-14T19:25:14.017Z,94185.00
2023-03-14T19:26:14.003Z,94183.00
2023-03-14T19:27:13.981Z,94181.00
2023-03-14T19:28:13.972Z,94183.00
2023-03-14T19:30:34.552Z,94183.00
2023-03-14T19:33:36.938Z,94181.00
2023-03-14T19:34:36.290Z,94187.00
2023-03-14T19:35:36.471Z,94183.00
2023-03-14T19:36:36.237Z,94185.00
2023-03-14T19:37:36.169Z,94183.00
2023-03-14T19:38:36.248Z,94183.00
2023-03-14T19:39:36.221Z,94185.00
2023-03-14T19:40:36.169Z,94185.00
2023-03-14T19:41:36.204Z,94185.00
2023-03-14T19:42:36.184Z,94185.00
2023-03-14T19:43:36.201Z,94185.00
2023-03-14T19:44:36.124Z,94189.00
2023-03-14T19:45:37.252Z,94187.00
2023-03-14T19:46:36.201Z,94189.00
2023-03-14T19:47:36.135Z,94191.00
2023-03-14T19:48:36.130Z,94197.00
2023-03-14T19:49:36.087Z,94199.00
2023-03-14T19:50:36.127Z,94201.00
2023-03-14T19:51:36.162Z,94205.00
2023-03-14T19:52:36.135Z,94209.00
2023-03-14T19:53:36.116Z,94211.00
2023-03-14T19:54:36.157Z,94217.00
2023-03-14T19:55:36.222Z,94217.00
2023-03-14T19:56:36.244Z,94219.00
2023-03-14T19:58:36.387Z,94211.00
2023-03-14T19:59:36.598Z,94207.00
2023-03-14T20:00:36.249Z,94205.00
2023-03-14T20:01:36.339Z,94205.00
2023-03-14T20:02:36.277Z,94205.00
2023-03-14T20:03:36.316Z,94207.00
2023-03-14T20:04:36.247Z,94213.00
2023-03-14T20:05:36.233Z,94219.00
2023-03-14T20:06:36.293Z,94221.00
2023-03-14T20:07:36.204Z,94223.00
2023-03-14T20:08:36.185Z,94225.00
2023-03-14T20:09:36.197Z,94227.00
2023-03-14T20:10:36.191Z,94228.00
2023-03-14T20:11:36.178Z,94232.00
2023-03-14T20:12:36.181Z,94234.00
2023-03-14T20:13:36.210Z,94236.00
2023-03-14T20:14:36.155Z,94238.00
2023-03-14T20:15:36.738Z,94240.00
2023-03-14T20:16:36.277Z,94242.00
2023-03-14T20:17:36.142Z,94242.00
2023-03-14T20:18:36.240Z,94244.00
2023-03-14T20:19:36.158Z,94244.00
2023-03-14T20:20:36.213Z,94246.00
2023-03-14T20:29:17.002Z,94254.00
2023-03-14T20:30:17.372Z,94260.00
2023-03-14T20:32:35.175Z,94264.00
2023-03-14T20:33:35.196Z,94262.00
2023-03-14T20:34:34.903Z,94262.00
2023-03-14T20:35:34.934Z,94262.00
2023-03-14T20:36:34.926Z,94260.00
2023-03-14T20:37:34.871Z,94262.00
2023-03-14T20:38:34.882Z,94262.00
2023-03-14T20:39:35.890Z,94262.00
2023-03-14T20:40:34.843Z,94262.00
2023-03-14T20:41:34.905Z,94260.00
2023-03-14T20:42:34.877Z,94260.00
2023-03-14T20:47:54.727Z,94262.00
2023-03-14T20:48:54.666Z,94266.00
2023-03-14T20:51:14.854Z,94270.00
2023-03-14T20:53:35.105Z,94277.00
2023-03-14T20:54:34.811Z,94279.00
2023-03-14T20:55:35.055Z,94279.00
2023-03-14T20:56:34.813Z,94277.00
2023-03-14T20:57:34.775Z,94279.00
2023-03-14T20:58:34.778Z,94279.00
2023-03-14T20:59:34.727Z,94283.00
2023-03-14T21:00:34.742Z,94287.00
2023-03-14T21:01:34.806Z,94289.00
2023-03-14T21:02:34.700Z,94289.00
2023-03-14T21:03:34.702Z,94289.00
2023-03-14T21:04:34.760Z,94287.00
2023-03-14T21:09:55.070Z,94287.00
2023-03-14T21:12:14.822Z,94283.00
2023-03-14T21:13:14.602Z,94291.00
2023-03-14T21:14:14.703Z,94291.00
2023-03-14T21:15:14.595Z,94289.00
2023-03-14T21:16:14.575Z,94289.00
2023-03-14T21:17:14.481Z,94289.00
2023-03-14T21:18:14.476Z,94287.00
2023-03-14T21:19:14.438Z,94289.00
2023-03-14T21:20:14.496Z,94291.00
2023-03-14T21:21:14.414Z,94291.00
2023-03-14T21:22:14.464Z,94293.00
2023-03-14T21:23:16.482Z,94295.00
2023-03-14T21:24:14.410Z,94293.00
2023-03-14T21:25:14.420Z,94293.00
2023-03-14T21:26:14.393Z,94293.00
2023-03-14T21:27:14.410Z,94289.00
2023-03-14T21:28:14.391Z,94289.00
2023-03-14T21:29:14.344Z,94289.00
2023-03-14T21:30:14.371Z,94291.00
2023-03-14T21:31:14.460Z,94297.00
2023-03-14T21:32:14.371Z,94295.00
2023-03-14T22:01:53.547Z,94334.00
2023-03-14T22:03:11.780Z,94336.00
2023-03-14T22:03:54.372Z,94336.00
2023-03-14T22:04:53.363Z,94338.00
2023-03-14T22:05:53.377Z,94338.00
2023-03-14T22:06:53.338Z,94340.00
2023-03-14T22:07:53.357Z,94340.00
2023-03-14T22:08:53.323Z,94342.00
2023-03-14T22:09:53.326Z,94344.00
2023-03-14T22:10:53.329Z,94346.00
2023-03-14T22:11:53.298Z,94350.00
2023-03-14T22:12:53.390Z,94350.00
2023-03-14T22:13:53.380Z,94356.00
2023-03-14T22:14:53.475Z,94358.00
2023-03-14T22:15:53.539Z,94356.00
2023-03-14T22:16:53.634Z,94362.00
2023-03-14T22:17:53.756Z,94360.00
2023-03-14T22:18:53.766Z,94358.00
2023-03-14T22:19:53.824Z,94356.00
2023-03-14T22:20:53.825Z,94354.00
2023-03-14T22:21:53.909Z,94356.00
2023-03-14T22:22:53.945Z,94362.00
2023-03-14T22:23:54.050Z,94368.00
2023-03-14T22:24:54.095Z,94364.00
2023-03-14T22:25:54.133Z,94366.00
2023-03-14T22:26:54.156Z,94369.00
2023-03-14T22:27:54.178Z,94364.00
2023-03-14T22:28:54.218Z,94364.00
2023-03-14T22:29:54.333Z,94362.00
2023-03-14T22:33:34.490Z,94356.00
2023-03-14T22:34:33.995Z,94354.00
2023-03-14T22:35:34.303Z,94352.00
2023-03-14T22:36:34.395Z,94352.00
2023-03-14T23:18:16.297Z,94403.00
2023-03-14T23:19:16.924Z,94407.00
2023-03-14T23:20:15.264Z,94405.00
2023-03-14T23:21:15.272Z,94405.00
2023-03-14T23:43:15.371Z,94409.00
2023-03-14T23:44:15.141Z,94407.00
2023-03-14T23:46:14.934Z,94413.00
